sensor_id;sensor_type;location;lat;lon;timestamp;temperature;humidity
28761;DHT22;15917;50.014;8.352;2023-07-30T00:01:56;20.50;99.90
28761;DHT22;15917;50.014;8.352;2023-07-30T00:04:22;20.40;99.90
28761;DHT22;15917;50.014;8.352;2023-07-30T00:06:48;20.40;99.90
28761;DHT22;15917;50.014;8.352;2023-07-30T00:09:14;20.40;99.90
28761;DHT22;15917;50.014;8.352;2023-07-30T00:11:40;20.40;99.90
28761;DHT22;15917;50.014;8.352;2023-07-30T00:14:05;20.30;99.90
28761;DHT22;15917;50.014;8.352;2023-07-30T00:16:31;20.40;99.90
28761;DHT22;15917;50.014;8.352;2023-07-30T00:18:56;20.30;99.90
28761;DHT22;15917;50.014;8.352;2023-07-30T00:21:22;20.30;99.90
28761;DHT22;15917;50.014;8.352;2023-07-30T00:23:48;20.20;99.90
28761;DHT22;15917;50.014;8.352;2023-07-30T00:26:14;20.20;99.90
28761;DHT22;15917;50.014;8.352;2023-07-30T00:28:39;20.20;99.90
28761;DHT22;15917;50.014;8.352;2023-07-30T00:31:05;20.20;99.90
28761;DHT22;15917;50.014;8.352;2023-07-30T00:33:31;20.20;99.90
28761;DHT22;15917;50.014;8.352;2023-07-30T00:35:56;20.10;99.90
28761;DHT22;15917;50.014;8.352;2023-07-30T00:38:22;20.10;99.90
28761;DHT22;15917;50.014;8.352;2023-07-30T00:40:47;20.10;99.90
28761;DHT22;15917;50.014;8.352;2023-07-30T00:43:13;20.10;99.90
28761;DHT22;15917;50.014;8.352;2023-07-30T00:45:41;20.10;99.90
28761;DHT22;15917;50.014;8.352;2023-07-30T00:48:09;20.10;99.90
28761;DHT22;15917;50.014;8.352;2023-07-30T00:50:35;20.10;99.90
28761;DHT22;15917;50.014;8.352;2023-07-30T00:53:00;20.20;99.90
28761;DHT22;15917;50.014;8.352;2023-07-30T00:55:26;20.10;99.90
28761;DHT22;15917;50.014;8.352;2023-07-30T00:57:52;20.00;99.90
28761;DHT22;15917;50.014;8.352;2023-07-30T01:00:17;20.00;99.90
28761;DHT22;15917;50.014;8.352;2023-07-30T01:02:44;20.00;99.90
28761;DHT22;15917;50.014;8.352;2023-07-30T01:05:09;20.00;99.90
28761;DHT22;15917;50.014;8.352;2023-07-30T01:07:35;20.00;99.90
28761;DHT22;15917;50.014;8.352;2023-07-30T01:10:01;20.00;99.90
28761;DHT22;15917;50.014;8.352;2023-07-30T01:12:29;20.00;99.90
28761;DHT22;15917;50.014;8.352;2023-07-30T01:14:55;20.00;99.90
28761;DHT22;15917;50.014;8.352;2023-07-30T01:17:22;20.00;99.90
28761;DHT22;15917;50.014;8.352;2023-07-30T01:19:48;20.00;99.90
28761;DHT22;15917;50.014;8.352;2023-07-30T01:22:20;20.00;99.90
28761;DHT22;15917;50.014;8.352;2023-07-30T01:24:46;20.00;99.90
28761;DHT22;15917;50.014;8.352;2023-07-30T01:27:19;20.00;99.90
28761;DHT22;15917;50.014;8.352;2023-07-30T01:29:52;20.00;99.90
28761;DHT22;15917;50.014;8.352;2023-07-30T01:32:27;20.00;99.90
28761;DHT22;15917;50.014;8.352;2023-07-30T01:34:56;19.90;99.90
28761;DHT22;15917;50.014;8.352;2023-07-30T01:37:22;19.90;99.90
28761;DHT22;15917;50.014;8.352;2023-07-30T01:39:49;19.90;99.90
28761;DHT22;15917;50.014;8.352;2023-07-30T01:42:15;19.90;99.90
28761;DHT22;15917;50.014;8.352;2023-07-30T01:44:41;19.90;99.90
28761;DHT22;15917;50.014;8.352;2023-07-30T01:47:07;19.90;99.90
28761;DHT22;15917;50.014;8.352;2023-07-30T01:49:33;19.90;99.90
28761;DHT22;15917;50.014;8.352;2023-07-30T01:51:59;19.90;99.90
28761;DHT22;15917;50.014;8.352;2023-07-30T01:54:25;19.80;99.90
28761;DHT22;15917;50.014;8.352;2023-07-30T01:56:51;19.80;99.90
28761;DHT22;15917;50.014;8.352;2023-07-30T01:59:17;19.90;99.90
28761;DHT22;15917;50.014;8.352;2023-07-30T02:01:43;19.80;99.90
28761;DHT22;15917;50.014;8.352;2023-07-30T02:04:09;19.80;99.90
28761;DHT22;15917;50.014;8.352;2023-07-30T02:06:34;19.80;99.90
28761;DHT22;15917;50.014;8.352;2023-07-30T02:09:00;19.80;99.90
28761;DHT22;15917;50.014;8.352;2023-07-30T02:11:26;19.80;99.90
28761;DHT22;15917;50.014;8.352;2023-07-30T02:13:51;19.80;99.90
28761;DHT22;15917;50.014;8.352;2023-07-30T02:16:17;19.80;99.90
28761;DHT22;15917;50.014;8.352;2023-07-30T02:18:43;19.80;99.90
28761;DHT22;15917;50.014;8.352;2023-07-30T02:21:09;19.80;99.90
28761;DHT22;15917;50.014;8.352;2023-07-30T02:23:34;19.80;99.90
28761;DHT22;15917;50.014;8.352;2023-07-30T02:26:00;19.80;99.90
28761;DHT22;15917;50.014;8.352;2023-07-30T02:28:26;19.80;99.90
28761;DHT22;15917;50.014;8.352;2023-07-30T02:30:51;19.80;99.90
28761;DHT22;15917;50.014;8.352;2023-07-30T02:33:17;19.70;99.90
28761;DHT22;15917;50.014;8.352;2023-07-30T02:35:43;19.70;99.90
28761;DHT22;15917;50.014;8.352;2023-07-30T02:38:09;19.60;99.90
28761;DHT22;15917;50.014;8.352;2023-07-30T02:40:35;19.60;99.90
28761;DHT22;15917;50.014;8.352;2023-07-30T02:43:00;19.60;99.90
28761;DHT22;15917;50.014;8.352;2023-07-30T02:45:26;19.60;99.90
28761;DHT22;15917;50.014;8.352;2023-07-30T02:47:52;19.60;99.90
28761;DHT22;15917;50.014;8.352;2023-07-30T02:50:17;19.60;99.90
28761;DHT22;15917;50.014;8.352;2023-07-30T02:52:43;19.50;99.90
28761;DHT22;15917;50.014;8.352;2023-07-30T02:55:09;19.50;99.90
28761;DHT22;15917;50.014;8.352;2023-07-30T02:57:35;19.50;99.90
28761;DHT22;15917;50.014;8.352;2023-07-30T03:00:01;19.50;99.90
28761;DHT22;15917;50.014;8.352;2023-07-30T03:02:27;19.40;99.90
28761;DHT22;15917;50.014;8.352;2023-07-30T03:04:53;19.40;99.90
28761;DHT22;15917;50.014;8.352;2023-07-30T03:07:19;19.40;99.90
28761;DHT22;15917;50.014;8.352;2023-07-30T03:09:45;19.40;99.90
28761;DHT22;15917;50.014;8.352;2023-07-30T03:12:11;19.40;99.90
28761;DHT22;15917;50.014;8.352;2023-07-30T03:14:37;19.30;99.90
28761;DHT22;15917;50.014;8.352;2023-07-30T03:17:03;19.30;99.90
28761;DHT22;15917;50.014;8.352;2023-07-30T03:19:30;19.30;99.90
28761;DHT22;15917;50.014;8.352;2023-07-30T03:21:56;19.30;99.90
28761;DHT22;15917;50.014;8.352;2023-07-30T03:24:22;19.30;99.90
28761;DHT22;15917;50.014;8.352;2023-07-30T03:26:47;19.30;99.90
28761;DHT22;15917;50.014;8.352;2023-07-30T03:29:13;19.30;99.90
28761;DHT22;15917;50.014;8.352;2023-07-30T03:31:39;19.30;99.90
28761;DHT22;15917;50.014;8.352;2023-07-30T03:34:05;19.30;99.90
28761;DHT22;15917;50.014;8.352;2023-07-30T03:36:31;19.30;99.90
28761;DHT22;15917;50.014;8.352;2023-07-30T03:38:56;19.30;99.90
28761;DHT22;15917;50.014;8.352;2023-07-30T03:41:22;19.30;99.90
28761;DHT22;15917;50.014;8.352;2023-07-30T03:43:48;19.30;99.90
28761;DHT22;15917;50.014;8.352;2023-07-30T03:46:13;19.30;99.90
28761;DHT22;15917;50.014;8.352;2023-07-30T03:48:39;19.30;99.90
28761;DHT22;15917;50.014;8.352;2023-07-30T03:51:05;19.30;99.90
28761;DHT22;15917;50.014;8.352;2023-07-30T03:53:32;19.30;99.90
28761;DHT22;15917;50.014;8.352;2023-07-30T03:55:58;19.30;99.90
28761;DHT22;15917;50.014;8.352;2023-07-30T03:58:25;19.20;99.90
28761;DHT22;15917;50.014;8.352;2023-07-30T04:00:51;19.20;99.90
28761;DHT22;15917;50.014;8.352;2023-07-30T04:03:16;19.10;99.90
28761;DHT22;15917;50.014;8.352;2023-07-30T04:05:42;19.10;99.90
28761;DHT22;15917;50.014;8.352;2023-07-30T04:08:08;19.00;99.90
28761;DHT22;15917;50.014;8.352;2023-07-30T04:10:33;19.10;99.90
28761;DHT22;15917;50.014;8.352;2023-07-30T04:12:59;19.10;99.90
28761;DHT22;15917;50.014;8.352;2023-07-30T04:15:25;19.00;99.90
28761;DHT22;15917;50.014;8.352;2023-07-30T04:17:51;19.00;99.90
28761;DHT22;15917;50.014;8.352;2023-07-30T04:20:17;19.00;99.90
28761;DHT22;15917;50.014;8.352;2023-07-30T04:22:43;19.00;99.90
28761;DHT22;15917;50.014;8.352;2023-07-30T04:25:09;19.00;99.90
28761;DHT22;15917;50.014;8.352;2023-07-30T04:27:36;19.00;99.90
28761;DHT22;15917;50.014;8.352;2023-07-30T04:30:03;18.90;99.90
28761;DHT22;15917;50.014;8.352;2023-07-30T04:32:28;18.90;99.90
28761;DHT22;15917;50.014;8.352;2023-07-30T04:34:55;18.90;99.90
28761;DHT22;15917;50.014;8.352;2023-07-30T04:37:20;18.90;99.90
28761;DHT22;15917;50.014;8.352;2023-07-30T04:39:47;18.90;99.90
28761;DHT22;15917;50.014;8.352;2023-07-30T04:42:12;18.80;99.90
28761;DHT22;15917;50.014;8.352;2023-07-30T04:44:39;18.90;99.90
28761;DHT22;15917;50.014;8.352;2023-07-30T04:47:11;18.80;99.90
28761;DHT22;15917;50.014;8.352;2023-07-30T04:49:37;18.80;99.90
28761;DHT22;15917;50.014;8.352;2023-07-30T04:52:09;18.80;99.90
28761;DHT22;15917;50.014;8.352;2023-07-30T04:54:35;18.80;99.90
28761;DHT22;15917;50.014;8.352;2023-07-30T04:57:02;18.80;99.90
28761;DHT22;15917;50.014;8.352;2023-07-30T04:59:28;18.80;99.90
28761;DHT22;15917;50.014;8.352;2023-07-30T05:01:54;18.80;99.90
28761;DHT22;15917;50.014;8.352;2023-07-30T05:04:19;18.80;99.90
28761;DHT22;15917;50.014;8.352;2023-07-30T05:06:45;18.80;99.90
28761;DHT22;15917;50.014;8.352;2023-07-30T05:09:10;18.80;99.90
28761;DHT22;15917;50.014;8.352;2023-07-30T05:11:38;18.90;99.90
28761;DHT22;15917;50.014;8.352;2023-07-30T05:14:03;18.90;99.90
28761;DHT22;15917;50.014;8.352;2023-07-30T05:16:29;18.90;99.90
28761;DHT22;15917;50.014;8.352;2023-07-30T05:18:55;19.00;99.90
28761;DHT22;15917;50.014;8.352;2023-07-30T05:21:20;19.00;99.90
28761;DHT22;15917;50.014;8.352;2023-07-30T05:23:46;19.20;99.90
28761;DHT22;15917;50.014;8.352;2023-07-30T05:26:11;19.20;99.90
28761;DHT22;15917;50.014;8.352;2023-07-30T05:28:37;19.20;99.90
28761;DHT22;15917;50.014;8.352;2023-07-30T05:31:03;19.20;99.90
28761;DHT22;15917;50.014;8.352;2023-07-30T05:33:28;19.20;99.90
28761;DHT22;15917;50.014;8.352;2023-07-30T05:35:54;19.20;99.90
28761;DHT22;15917;50.014;8.352;2023-07-30T05:38:19;19.20;99.90
28761;DHT22;15917;50.014;8.352;2023-07-30T05:40:45;19.30;99.90
28761;DHT22;15917;50.014;8.352;2023-07-30T05:43:10;19.30;99.90
28761;DHT22;15917;50.014;8.352;2023-07-30T05:45:36;19.30;99.90
28761;DHT22;15917;50.014;8.352;2023-07-30T05:48:02;19.40;99.90
28761;DHT22;15917;50.014;8.352;2023-07-30T05:50:28;19.50;99.90
28761;DHT22;15917;50.014;8.352;2023-07-30T05:52:53;19.50;99.90
28761;DHT22;15917;50.014;8.352;2023-07-30T05:55:19;19.60;99.90
28761;DHT22;15917;50.014;8.352;2023-07-30T05:57:44;19.70;99.90
28761;DHT22;15917;50.014;8.352;2023-07-30T06:00:11;19.80;99.90
28761;DHT22;15917;50.014;8.352;2023-07-30T06:02:40;19.90;99.90
28761;DHT22;15917;50.014;8.352;2023-07-30T06:05:05;20.00;99.90
28761;DHT22;15917;50.014;8.352;2023-07-30T06:07:31;20.10;99.90
28761;DHT22;15917;50.014;8.352;2023-07-30T06:09:56;20.10;99.90
28761;DHT22;15917;50.014;8.352;2023-07-30T06:12:22;20.20;99.90
28761;DHT22;15917;50.014;8.352;2023-07-30T06:14:48;20.10;99.90
28761;DHT22;15917;50.014;8.352;2023-07-30T06:17:13;20.20;99.90
28761;DHT22;15917;50.014;8.352;2023-07-30T06:19:39;20.20;99.90
28761;DHT22;15917;50.014;8.352;2023-07-30T06:22:04;20.20;99.90
28761;DHT22;15917;50.014;8.352;2023-07-30T06:24:30;20.20;99.90
28761;DHT22;15917;50.014;8.352;2023-07-30T06:26:56;20.20;99.90
28761;DHT22;15917;50.014;8.352;2023-07-30T06:29:21;20.20;99.90
28761;DHT22;15917;50.014;8.352;2023-07-30T06:31:47;20.20;99.90
28761;DHT22;15917;50.014;8.352;2023-07-30T06:34:12;20.20;99.90
28761;DHT22;15917;50.014;8.352;2023-07-30T06:36:38;20.20;99.90
28761;DHT22;15917;50.014;8.352;2023-07-30T06:39:03;20.20;99.90
28761;DHT22;15917;50.014;8.352;2023-07-30T06:41:29;20.30;99.90
28761;DHT22;15917;50.014;8.352;2023-07-30T06:43:54;20.30;99.90
28761;DHT22;15917;50.014;8.352;2023-07-30T06:46:20;20.20;99.90
28761;DHT22;15917;50.014;8.352;2023-07-30T06:48:46;20.30;99.90
28761;DHT22;15917;50.014;8.352;2023-07-30T06:51:11;20.30;99.90
28761;DHT22;15917;50.014;8.352;2023-07-30T06:53:39;20.30;99.90
28761;DHT22;15917;50.014;8.352;2023-07-30T06:56:05;20.30;99.90
28761;DHT22;15917;50.014;8.352;2023-07-30T06:58:30;20.40;99.90
28761;DHT22;15917;50.014;8.352;2023-07-30T07:00:56;20.40;99.90
28761;DHT22;15917;50.014;8.352;2023-07-30T07:03:21;20.40;99.90
28761;DHT22;15917;50.014;8.352;2023-07-30T07:05:54;20.40;99.90
28761;DHT22;15917;50.014;8.352;2023-07-30T07:08:20;20.40;99.90
28761;DHT22;15917;50.014;8.352;2023-07-30T07:10:46;20.40;99.90
28761;DHT22;15917;50.014;8.352;2023-07-30T07:13:12;20.30;99.90
28761;DHT22;15917;50.014;8.352;2023-07-30T07:15:43;20.30;99.90
28761;DHT22;15917;50.014;8.352;2023-07-30T07:18:09;20.10;99.90
28761;DHT22;15917;50.014;8.352;2023-07-30T07:20:36;20.10;99.90
28761;DHT22;15917;50.014;8.352;2023-07-30T07:23:02;20.10;99.90
28761;DHT22;15917;50.014;8.352;2023-07-30T07:25:28;20.00;99.90
28761;DHT22;15917;50.014;8.352;2023-07-30T07:27:53;20.00;99.90
28761;DHT22;15917;50.014;8.352;2023-07-30T07:30:19;20.10;99.90
28761;DHT22;15917;50.014;8.352;2023-07-30T07:32:45;20.10;99.90
28761;DHT22;15917;50.014;8.352;2023-07-30T07:35:10;20.10;99.90
28761;DHT22;15917;50.014;8.352;2023-07-30T07:37:36;20.00;99.90
28761;DHT22;15917;50.014;8.352;2023-07-30T07:40:01;20.00;99.90
28761;DHT22;15917;50.014;8.352;2023-07-30T07:42:29;19.90;99.90
28761;DHT22;15917;50.014;8.352;2023-07-30T07:44:55;20.00;99.90
28761;DHT22;15917;50.014;8.352;2023-07-30T07:47:21;20.00;99.90
28761;DHT22;15917;50.014;8.352;2023-07-30T07:49:47;20.00;99.90
28761;DHT22;15917;50.014;8.352;2023-07-30T07:52:13;20.10;99.90
28761;DHT22;15917;50.014;8.352;2023-07-30T07:54:40;20.10;99.90
28761;DHT22;15917;50.014;8.352;2023-07-30T07:57:07;20.10;99.90
28761;DHT22;15917;50.014;8.352;2023-07-30T07:59:33;20.20;99.90
28761;DHT22;15917;50.014;8.352;2023-07-30T08:01:58;20.30;99.90
28761;DHT22;15917;50.014;8.352;2023-07-30T08:04:24;20.30;99.90
28761;DHT22;15917;50.014;8.352;2023-07-30T08:06:49;20.40;99.90
28761;DHT22;15917;50.014;8.352;2023-07-30T08:09:15;20.50;99.90
28761;DHT22;15917;50.014;8.352;2023-07-30T08:11:41;20.70;99.90
28761;DHT22;15917;50.014;8.352;2023-07-30T08:14:06;20.80;99.90
28761;DHT22;15917;50.014;8.352;2023-07-30T08:16:32;20.90;99.90
28761;DHT22;15917;50.014;8.352;2023-07-30T08:18:57;21.10;99.90
28761;DHT22;15917;50.014;8.352;2023-07-30T08:21:23;21.10;99.90
28761;DHT22;15917;50.014;8.352;2023-07-30T08:23:49;21.20;99.90
28761;DHT22;15917;50.014;8.352;2023-07-30T08:26:14;21.20;99.90
28761;DHT22;15917;50.014;8.352;2023-07-30T08:28:40;21.20;99.90
28761;DHT22;15917;50.014;8.352;2023-07-30T08:31:06;21.20;99.90
28761;DHT22;15917;50.014;8.352;2023-07-30T08:33:32;21.10;99.90
28761;DHT22;15917;50.014;8.352;2023-07-30T08:35:59;21.10;99.90
28761;DHT22;15917;50.014;8.352;2023-07-30T08:38:25;21.00;99.90
28761;DHT22;15917;50.014;8.352;2023-07-30T08:40:51;20.90;99.90
28761;DHT22;15917;50.014;8.352;2023-07-30T08:43:18;20.90;99.90
28761;DHT22;15917;50.014;8.352;2023-07-30T08:45:45;20.80;99.90
28761;DHT22;15917;50.014;8.352;2023-07-30T08:48:10;20.90;99.90
28761;DHT22;15917;50.014;8.352;2023-07-30T08:50:37;21.10;99.90
28761;DHT22;15917;50.014;8.352;2023-07-30T08:53:03;21.10;99.90
28761;DHT22;15917;50.014;8.352;2023-07-30T08:55:32;21.10;99.90
28761;DHT22;15917;50.014;8.352;2023-07-30T08:58:03;21.20;99.90
28761;DHT22;15917;50.014;8.352;2023-07-30T09:00:31;21.30;99.90
28761;DHT22;15917;50.014;8.352;2023-07-30T09:02:59;21.20;99.90
28761;DHT22;15917;50.014;8.352;2023-07-30T09:05:26;21.10;99.90
28761;DHT22;15917;50.014;8.352;2023-07-30T09:07:56;21.10;99.90
28761;DHT22;15917;50.014;8.352;2023-07-30T09:10:22;21.10;99.90
28761;DHT22;15917;50.014;8.352;2023-07-30T09:12:56;21.00;99.90
28761;DHT22;15917;50.014;8.352;2023-07-30T09:15:35;20.50;99.90
28761;DHT22;15917;50.014;8.352;2023-07-30T09:18:03;20.10;99.90
28761;DHT22;15917;50.014;8.352;2023-07-30T09:20:40;19.80;99.90
28761;DHT22;15917;50.014;8.352;2023-07-30T09:23:07;19.70;99.90
28761;DHT22;15917;50.014;8.352;2023-07-30T09:25:33;19.60;99.90
28761;DHT22;15917;50.014;8.352;2023-07-30T09:27:59;19.50;99.90
28761;DHT22;15917;50.014;8.352;2023-07-30T09:30:26;19.40;99.90
28761;DHT22;15917;50.014;8.352;2023-07-30T09:32:53;19.40;99.90
28761;DHT22;15917;50.014;8.352;2023-07-30T09:35:19;19.50;99.90
28761;DHT22;15917;50.014;8.352;2023-07-30T09:37:46;19.70;99.90
28761;DHT22;15917;50.014;8.352;2023-07-30T09:40:14;19.90;99.90
28761;DHT22;15917;50.014;8.352;2023-07-30T09:42:44;19.90;99.90
28761;DHT22;15917;50.014;8.352;2023-07-30T09:45:24;20.10;99.90
28761;DHT22;15917;50.014;8.352;2023-07-30T09:47:50;20.40;99.90
28761;DHT22;15917;50.014;8.352;2023-07-30T09:50:16;20.60;99.90
28761;DHT22;15917;50.014;8.352;2023-07-30T09:52:43;20.90;99.90
28761;DHT22;15917;50.014;8.352;2023-07-30T09:55:09;21.00;99.90
28761;DHT22;15917;50.014;8.352;2023-07-30T09:57:36;21.00;99.90
28761;DHT22;15917;50.014;8.352;2023-07-30T10:00:03;21.10;99.90
28761;DHT22;15917;50.014;8.352;2023-07-30T10:02:30;21.10;99.90
28761;DHT22;15917;50.014;8.352;2023-07-30T10:04:59;21.00;99.90
28761;DHT22;15917;50.014;8.352;2023-07-30T10:07:26;20.60;99.90
28761;DHT22;15917;50.014;8.352;2023-07-30T10:09:58;20.50;99.90
28761;DHT22;15917;50.014;8.352;2023-07-30T10:12:28;20.40;99.90
28761;DHT22;15917;50.014;8.352;2023-07-30T10:14:56;20.20;99.90
28761;DHT22;15917;50.014;8.352;2023-07-30T10:17:22;20.20;99.90
28761;DHT22;15917;50.014;8.352;2023-07-30T10:19:49;20.30;99.90
28761;DHT22;15917;50.014;8.352;2023-07-30T10:25:03;20.50;99.90
28761;DHT22;15917;50.014;8.352;2023-07-30T10:27:38;20.60;99.90
28761;DHT22;15917;50.014;8.352;2023-07-30T10:30:14;20.80;99.90
28761;DHT22;15917;50.014;8.352;2023-07-30T10:35:07;21.20;99.90
28761;DHT22;15917;50.014;8.352;2023-07-30T10:37:33;21.30;99.90
28761;DHT22;15917;50.014;8.352;2023-07-30T10:39:58;21.50;99.90
28761;DHT22;15917;50.014;8.352;2023-07-30T10:42:33;21.50;99.90
28761;DHT22;15917;50.014;8.352;2023-07-30T10:44:59;21.40;99.90
28761;DHT22;15917;50.014;8.352;2023-07-30T10:47:30;21.20;99.90
28761;DHT22;15917;50.014;8.352;2023-07-30T10:50:02;21.40;99.90
28761;DHT22;15917;50.014;8.352;2023-07-30T10:52:28;21.80;99.90
28761;DHT22;15917;50.014;8.352;2023-07-30T10:55:03;22.00;99.90
28761;DHT22;15917;50.014;8.352;2023-07-30T10:57:32;22.40;99.90
28761;DHT22;15917;50.014;8.352;2023-07-30T10:59:59;22.50;99.90
28761;DHT22;15917;50.014;8.352;2023-07-30T11:02:25;22.30;99.90
28761;DHT22;15917;50.014;8.352;2023-07-30T11:04:50;22.30;99.90
28761;DHT22;15917;50.014;8.352;2023-07-30T11:07:17;22.30;99.90
28761;DHT22;15917;50.014;8.352;2023-07-30T11:09:44;22.30;99.90
28761;DHT22;15917;50.014;8.352;2023-07-30T11:12:10;22.30;99.90
28761;DHT22;15917;50.014;8.352;2023-07-30T11:14:36;22.10;99.90
28761;DHT22;15917;50.014;8.352;2023-07-30T11:17:01;22.00;99.90
28761;DHT22;15917;50.014;8.352;2023-07-30T11:19:29;21.90;99.90
28761;DHT22;15917;50.014;8.352;2023-07-30T11:21:56;21.70;99.90
28761;DHT22;15917;50.014;8.352;2023-07-30T11:24:32;21.60;99.90
28761;DHT22;15917;50.014;8.352;2023-07-30T11:26:59;21.50;99.90
28761;DHT22;15917;50.014;8.352;2023-07-30T11:29:25;21.40;99.90
28761;DHT22;15917;50.014;8.352;2023-07-30T11:31:51;21.50;99.90
28761;DHT22;15917;50.014;8.352;2023-07-30T11:34:17;21.50;99.90
28761;DHT22;15917;50.014;8.352;2023-07-30T11:36:44;21.50;99.90
28761;DHT22;15917;50.014;8.352;2023-07-30T11:39:10;21.60;99.90
28761;DHT22;15917;50.014;8.352;2023-07-30T11:41:36;21.60;99.90
28761;DHT22;15917;50.014;8.352;2023-07-30T11:44:03;21.70;99.90
28761;DHT22;15917;50.014;8.352;2023-07-30T11:46:29;21.70;99.90
28761;DHT22;15917;50.014;8.352;2023-07-30T11:49:16;21.70;99.90
28761;DHT22;15917;50.014;8.352;2023-07-30T11:51:46;21.70;99.90
28761;DHT22;15917;50.014;8.352;2023-07-30T11:54:23;21.80;99.90
28761;DHT22;15917;50.014;8.352;2023-07-30T11:56:54;21.90;99.90
28761;DHT22;15917;50.014;8.352;2023-07-30T11:59:20;22.00;99.90
28761;DHT22;15917;50.014;8.352;2023-07-30T12:01:47;22.20;99.90
28761;DHT22;15917;50.014;8.352;2023-07-30T12:04:12;22.20;99.90
28761;DHT22;15917;50.014;8.352;2023-07-30T12:06:43;22.30;99.90
28761;DHT22;15917;50.014;8.352;2023-07-30T12:09:14;22.30;99.90
28761;DHT22;15917;50.014;8.352;2023-07-30T12:11:48;22.30;99.90
28761;DHT22;15917;50.014;8.352;2023-07-30T12:14:15;22.20;99.90
28761;DHT22;15917;50.014;8.352;2023-07-30T12:16:40;22.20;99.90
28761;DHT22;15917;50.014;8.352;2023-07-30T12:19:06;22.20;99.90
28761;DHT22;15917;50.014;8.352;2023-07-30T12:21:32;22.20;99.90
28761;DHT22;15917;50.014;8.352;2023-07-30T12:23:57;22.20;99.90
28761;DHT22;15917;50.014;8.352;2023-07-30T12:26:23;22.20;99.90
28761;DHT22;15917;50.014;8.352;2023-07-30T12:28:48;22.10;99.90
28761;DHT22;15917;50.014;8.352;2023-07-30T12:31:14;22.10;99.90
28761;DHT22;15917;50.014;8.352;2023-07-30T12:33:40;22.20;99.90
28761;DHT22;15917;50.014;8.352;2023-07-30T12:36:05;22.60;99.90
28761;DHT22;15917;50.014;8.352;2023-07-30T12:38:31;23.00;99.90
28761;DHT22;15917;50.014;8.352;2023-07-30T12:40:56;23.10;99.90
28761;DHT22;15917;50.014;8.352;2023-07-30T12:43:22;23.20;99.90
28761;DHT22;15917;50.014;8.352;2023-07-30T12:45:48;22.90;99.90
28761;DHT22;15917;50.014;8.352;2023-07-30T12:48:13;22.70;99.90
28761;DHT22;15917;50.014;8.352;2023-07-30T12:50:39;22.70;99.90
28761;DHT22;15917;50.014;8.352;2023-07-30T12:53:05;22.60;99.90
28761;DHT22;15917;50.014;8.352;2023-07-30T12:55:30;22.40;99.90
28761;DHT22;15917;50.014;8.352;2023-07-30T12:57:56;22.60;99.90
28761;DHT22;15917;50.014;8.352;2023-07-30T13:00:21;22.90;99.90
28761;DHT22;15917;50.014;8.352;2023-07-30T13:02:47;22.90;99.90
28761;DHT22;15917;50.014;8.352;2023-07-30T13:05:13;23.00;99.90
28761;DHT22;15917;50.014;8.352;2023-07-30T13:07:40;23.00;99.90
28761;DHT22;15917;50.014;8.352;2023-07-30T13:10:07;23.00;99.90
28761;DHT22;15917;50.014;8.352;2023-07-30T13:12:34;23.10;99.90
28761;DHT22;15917;50.014;8.352;2023-07-30T13:15:01;23.10;99.90
28761;DHT22;15917;50.014;8.352;2023-07-30T13:17:27;23.20;99.90
28761;DHT22;15917;50.014;8.352;2023-07-30T13:19:52;23.10;99.90
28761;DHT22;15917;50.014;8.352;2023-07-30T13:22:18;23.00;99.90
28761;DHT22;15917;50.014;8.352;2023-07-30T13:24:43;22.90;99.90
28761;DHT22;15917;50.014;8.352;2023-07-30T13:27:09;22.90;99.90
28761;DHT22;15917;50.014;8.352;2023-07-30T13:29:36;22.80;99.90
28761;DHT22;15917;50.014;8.352;2023-07-30T13:32:01;22.70;99.90
28761;DHT22;15917;50.014;8.352;2023-07-30T13:34:27;22.80;99.90
28761;DHT22;15917;50.014;8.352;2023-07-30T13:36:52;22.90;99.90
28761;DHT22;15917;50.014;8.352;2023-07-30T13:39:18;23.20;99.90
28761;DHT22;15917;50.014;8.352;2023-07-30T13:41:44;23.30;99.90
28761;DHT22;15917;50.014;8.352;2023-07-30T13:44:09;23.50;99.90
28761;DHT22;15917;50.014;8.352;2023-07-30T13:46:37;23.70;99.90
28761;DHT22;15917;50.014;8.352;2023-07-30T13:49:03;24.10;99.90
28761;DHT22;15917;50.014;8.352;2023-07-30T13:51:29;23.90;99.90
28761;DHT22;15917;50.014;8.352;2023-07-30T13:54:01;23.70;99.90
28761;DHT22;15917;50.014;8.352;2023-07-30T13:56:28;23.70;99.90
28761;DHT22;15917;50.014;8.352;2023-07-30T13:58:53;23.90;99.90
28761;DHT22;15917;50.014;8.352;2023-07-30T14:01:19;24.00;99.90
28761;DHT22;15917;50.014;8.352;2023-07-30T14:03:45;24.20;99.90
28761;DHT22;15917;50.014;8.352;2023-07-30T14:06:11;24.30;99.90
28761;DHT22;15917;50.014;8.352;2023-07-30T14:08:37;24.60;99.90
28761;DHT22;15917;50.014;8.352;2023-07-30T14:11:03;25.00;99.90
28761;DHT22;15917;50.014;8.352;2023-07-30T14:13:28;25.30;99.90
28761;DHT22;15917;50.014;8.352;2023-07-30T14:15:54;25.40;99.90
28761;DHT22;15917;50.014;8.352;2023-07-30T14:18:20;25.10;99.90
28761;DHT22;15917;50.014;8.352;2023-07-30T14:20:45;25.10;99.90
28761;DHT22;15917;50.014;8.352;2023-07-30T14:23:11;25.00;99.90
28761;DHT22;15917;50.014;8.352;2023-07-30T14:25:37;24.50;99.90
28761;DHT22;15917;50.014;8.352;2023-07-30T14:28:04;24.20;99.90
28761;DHT22;15917;50.014;8.352;2023-07-30T14:30:29;23.90;99.90
28761;DHT22;15917;50.014;8.352;2023-07-30T14:32:55;23.80;99.90
28761;DHT22;15917;50.014;8.352;2023-07-30T14:35:21;23.60;99.90
28761;DHT22;15917;50.014;8.352;2023-07-30T14:37:47;23.70;99.90
28761;DHT22;15917;50.014;8.352;2023-07-30T14:40:12;23.70;99.90
28761;DHT22;15917;50.014;8.352;2023-07-30T14:42:38;23.80;99.90
28761;DHT22;15917;50.014;8.352;2023-07-30T14:45:05;24.20;99.90
28761;DHT22;15917;50.014;8.352;2023-07-30T14:47:31;24.20;99.90
28761;DHT22;15917;50.014;8.352;2023-07-30T14:49:58;24.10;99.90
28761;DHT22;15917;50.014;8.352;2023-07-30T14:52:23;24.10;99.90
28761;DHT22;15917;50.014;8.352;2023-07-30T14:54:49;24.30;99.90
28761;DHT22;15917;50.014;8.352;2023-07-30T14:57:15;24.40;99.90
28761;DHT22;15917;50.014;8.352;2023-07-30T14:59:40;24.50;99.90
28761;DHT22;15917;50.014;8.352;2023-07-30T15:02:06;24.50;99.90
28761;DHT22;15917;50.014;8.352;2023-07-30T15:04:32;24.70;99.90
28761;DHT22;15917;50.014;8.352;2023-07-30T15:06:57;24.50;99.90
28761;DHT22;15917;50.014;8.352;2023-07-30T15:09:23;24.30;99.90
28761;DHT22;15917;50.014;8.352;2023-07-30T15:11:49;24.10;99.90
28761;DHT22;15917;50.014;8.352;2023-07-30T15:14:14;23.50;99.90
28761;DHT22;15917;50.014;8.352;2023-07-30T15:16:40;23.20;99.90
28761;DHT22;15917;50.014;8.352;2023-07-30T15:19:06;23.10;99.90
28761;DHT22;15917;50.014;8.352;2023-07-30T15:21:31;23.00;99.90
28761;DHT22;15917;50.014;8.352;2023-07-30T15:23:57;22.90;99.90
28761;DHT22;15917;50.014;8.352;2023-07-30T15:26:24;22.80;99.90
28761;DHT22;15917;50.014;8.352;2023-07-30T15:28:49;22.70;99.90
28761;DHT22;15917;50.014;8.352;2023-07-30T15:31:15;22.70;99.90